createdAt,value
2022-10-09T08:11:43.520Z,9.80
2022-10-09T08:14:19.240Z,9.00
2022-10-09T08:57:34.801Z,5.25
2022-10-09T09:00:31.749Z,5.13
2022-10-09T09:03:40.455Z,5.18
2022-10-09T09:10:20.427Z,5.18
2022-10-09T09:13:00.258Z,5.20
2022-10-09T09:21:10.174Z,4.95
2022-10-09T09:23:49.481Z,5.03
2022-10-09T09:26:21.825Z,4.72
2022-10-09T09:29:04.805Z,4.45
2022-10-09T09:31:51.386Z,4.32
2022-10-09T09:34:40.089Z,4.60
2022-10-09T09:37:12.905Z,4.53
2022-10-09T09:42:32.058Z,4.40
2022-10-09T09:45:10.051Z,4.63
2022-10-09T09:47:46.029Z,3.88
2022-10-09T09:50:42.336Z,4.22
2022-10-09T09:53:09.327Z,4.35
2022-10-09T09:55:38.000Z,4.40
2022-10-09T09:58:10.221Z,4.28
2022-10-09T10:00:40.847Z,4.30
2022-10-09T10:03:20.093Z,4.03
2022-10-09T10:05:49.000Z,4.07
2022-10-09T10:08:26.842Z,3.83
2022-10-09T10:10:58.821Z,3.63
2022-10-09T10:13:35.612Z,3.88
2022-10-09T10:16:08.791Z,4.28
2022-10-09T10:18:42.903Z,4.13
2022-10-09T10:21:15.878Z,4.43
2022-10-09T10:23:47.746Z,4.68
2022-10-09T10:26:26.092Z,4.60
2022-10-09T10:29:01.555Z,3.97
2022-10-09T10:31:48.784Z,4.07
2022-10-09T10:34:25.625Z,4.07
2022-10-09T10:37:03.703Z,4.00
2022-10-09T10:39:40.557Z,4.18
2022-10-09T10:42:19.982Z,3.90
2022-10-09T10:44:57.062Z,3.60
2022-10-09T10:47:33.651Z,3.80
2022-10-09T10:50:04.378Z,4.28
2022-10-09T10:52:44.106Z,4.32
2022-10-09T10:55:32.701Z,4.28
2022-10-09T10:58:26.743Z,4.10
2022-10-09T11:01:16.238Z,4.50
2022-10-09T11:04:31.495Z,4.47
2022-10-09T11:07:13.817Z,4.63
2022-10-09T11:09:55.994Z,4.28
2022-10-09T11:12:50.194Z,4.32
2022-10-09T11:15:38.111Z,4.43
2022-10-09T11:18:30.890Z,3.78
2022-10-09T11:21:15.297Z,3.60
2022-10-09T11:23:58.406Z,3.80
2022-10-09T11:26:40.437Z,3.58
2022-10-09T11:29:18.592Z,3.40
2022-10-09T11:40:40.291Z,4.32
2022-10-09T11:47:27.878Z,3.90
2022-10-09T11:50:19.914Z,3.10
2022-10-09T11:53:00.100Z,3.55
2022-10-09T11:55:34.754Z,3.75
2022-10-09T11:58:20.159Z,3.42
2022-10-09T12:00:55.805Z,3.88
2022-10-09T12:03:57.581Z,3.92
2022-10-09T12:06:33.712Z,3.40
2022-10-09T12:09:14.608Z,3.17
2022-10-09T12:38:38.825Z,3.10
2022-10-09T12:41:21.276Z,3.05
2022-10-09T15:12:21.016Z,2.75
2022-10-09T15:14:52.390Z,2.53
2022-10-09T15:17:29.287Z,2.80
2022-10-09T15:20:01.361Z,2.85
2022-10-09T15:22:33.709Z,2.92
2022-10-09T15:25:05.354Z,2.33
2022-10-09T15:27:43.111Z,2.67
2022-10-09T15:30:14.521Z,2.58
2022-10-09T15:32:45.376Z,2.78
2022-10-09T15:36:32.857Z,2.78
2022-10-09T15:55:36.520Z,2.28
2022-10-09T16:02:28.551Z,2.20
2022-10-09T16:04:58.683Z,2.38
2022-10-09T16:07:37.335Z,2.20
2022-10-09T16:10:16.392Z,2.35
2022-10-09T16:13:02.367Z,2.20
2022-10-09T16:15:59.868Z,2.40
2022-10-09T16:18:33.559Z,2.47
2022-10-09T16:23:47.155Z,1.92
2022-10-09T16:26:18.653Z,2.10
2022-10-09T16:28:47.982Z,1.90
2022-10-09T16:31:22.491Z,2.08
2022-10-09T16:33:54.084Z,2.03
2022-10-09T16:36:22.608Z,2.22
2022-10-09T16:38:53.395Z,1.73
2022-10-09T16:41:25.170Z,2.00
2022-10-09T16:43:56.219Z,2.20
2022-10-09T16:49:25.867Z,2.33
2022-10-09T16:51:55.056Z,2.03
2022-10-09T16:54:25.428Z,2.03
2022-10-09T16:57:07.742Z,1.92
2022-10-09T17:41:58.891Z,3.10
2022-10-09T17:45:24.915Z,2.50
2022-10-09T17:51:11.038Z,3.22
2022-10-09T17:54:04.085Z,3.00
2022-10-09T17:57:47.411Z,2.97
2022-10-09T18:41:25.338Z,4.60
2022-10-09T21:29:36.696Z,5.65
2022-10-09T21:43:29.581Z,5.65
